PWSweather.com
Personal Weather Stations
Station Observations
EDGELEY
Edgeley, Nd, Edgeley, ND 58433

Edgeley, NdEdgeley, ND 58433

Lat: 46.3599246, Lon: -98.7144392

Elevation: 1575

Station Type: Davis/Vantage Pro

www.edgeleyweather.com

High Low Average
Temperature 86.9°F30.5°C 62.4°F16.9°C 74.3°F23.5°C
Dew Point 62.1°F16.7°C 53.1°F11.7°C 58.2°F14.6°C
Winds 17.0 mph 27.4 kmh Calm Calm 5.0 mph N8.0 kmh N
Wind Gusts 25.0 mph40.2 kmh 1.0 mph1.6 kmh 9.0 mph14.5 kmh
Humidity 85% 32% 61%
Pressure 29.93 in1013.5 mb 29.78 in1008.5 mb -
Precipitation 0.00 in0.0 mm - -
Hour Temp Dew Point Humidity Winds Wind Gusts Pressure Precip Precip Rate Daily Precip Total
12:00 AM 66.7°F19.3°C 60.7°F15.9°C 81% Calm Calm -- 29.81 in1009.5 mb 0.00 in0.0 mm 0.00 in0.0 mm 0.00 in0.0 mm
12:05 AM 66.6°F19.2°C 60.6°F15.9°C 81% Calm Calm -- 29.81 in1009.5 mb 0.00 in0.0 mm 0.00 in0.0 mm 0.00 in0.0 mm
12:10 AM 66.5°F19.2°C 60.8°F16.0°C 82% 1.0 mph N1.6 kmh N 1.0 mph1.6 kmh 29.81 in1009.5 mb 0.00 in0.0 mm 0.00 in0.0 mm 0.00 in0.0 mm
12:15 AM 66.3°F19.1°C 60.7°F15.9°C 82% 2.0 mph N3.2 kmh N 3.0 mph4.8 kmh 29.81 in1009.5 mb 0.00 in0.0 mm 0.00 in0.0 mm 0.00 in0.0 mm
12:20 AM 66.1°F18.9°C 60.5°F15.8°C 82% 1.0 mph N1.6 kmh N 3.0 mph4.8 kmh 29.81 in1009.5 mb 0.00 in0.0 mm 0.00 in0.0 mm 0.00 in0.0 mm
12:25 AM 65.9°F18.8°C 60.6°F15.9°C 83% Calm Calm 3.0 mph4.8 kmh 29.81 in1009.5 mb 0.00 in0.0 mm 0.00 in0.0 mm 0.00 in0.0 mm
12:30 AM 65.6°F18.7°C 60.3°F15.7°C 83% 2.0 mph N3.2 kmh N 2.0 mph3.2 kmh 29.81 in1009.5 mb 0.00 in0.0 mm 0.00 in0.0 mm 0.00 in0.0 mm
12:35 AM 65.4°F18.6°C 60.1°F15.6°C 83% 1.0 mph N1.6 kmh N 2.0 mph3.2 kmh 29.81 in1009.5 mb 0.00 in0.0 mm 0.00 in0.0 mm 0.00 in0.0 mm
12:40 AM 65.1°F18.4°C 60.2°F15.7°C 84% Calm Calm 2.0 mph3.2 kmh 29.81 in1009.5 mb 0.00 in0.0 mm 0.00 in0.0 mm 0.00 in0.0 mm
12:45 AM 64.9°F18.3°C 60.0°F15.6°C 84% 2.0 mph N3.2 kmh N 2.0 mph3.2 kmh 29.81 in1009.5 mb 0.00 in0.0 mm 0.00 in0.0 mm 0.00 in0.0 mm
12:50 AM 64.8°F18.2°C 59.9°F15.5°C 84% 1.0 mph N1.6 kmh N 2.0 mph3.2 kmh 29.81 in1009.5 mb 0.00 in0.0 mm 0.00 in0.0 mm 0.00 in0.0 mm
12:55 AM 64.7°F18.2°C 59.8°F15.4°C 84% 2.0 mph N3.2 kmh N 2.0 mph3.2 kmh 29.81 in1009.5 mb 0.00 in0.0 mm 0.00 in0.0 mm 0.00 in0.0 mm
01:00 AM 64.6°F18.1°C 59.7°F15.4°C 84% 1.0 mph N1.6 kmh N 1.0 mph1.6 kmh 29.81 in1009.5 mb 0.00 in0.0 mm 0.00 in0.0 mm 0.00 in0.0 mm
01:05 AM 64.6°F18.1°C 59.7°F15.4°C 84% Calm Calm 2.0 mph3.2 kmh 29.81 in1009.5 mb 0.00 in0.0 mm 0.00 in0.0 mm 0.00 in0.0 mm
01:10 AM 64.6°F18.1°C 59.7°F15.4°C 84% 1.0 mph N1.6 kmh N 2.0 mph3.2 kmh 29.81 in1009.5 mb 0.00 in0.0 mm 0.00 in0.0 mm 0.00 in0.0 mm
01:15 AM 64.5°F18.1°C 59.6°F15.3°C 84% 2.0 mph N3.2 kmh N 2.0 mph3.2 kmh 29.81 in1009.5 mb 0.00 in0.0 mm 0.00 in0.0 mm 0.00 in0.0 mm
01:20 AM 64.4°F18.0°C 59.5°F15.3°C 84% 2.0 mph N3.2 kmh N 3.0 mph4.8 kmh 29.81 in1009.5 mb 0.00 in0.0 mm 0.00 in0.0 mm 0.00 in0.0 mm
01:25 AM 64.3°F17.9°C 59.4°F15.2°C 84% 4.0 mph N6.4 kmh N 4.0 mph6.4 kmh 29.81 in1009.5 mb 0.00 in0.0 mm 0.00 in0.0 mm 0.00 in0.0 mm
01:30 AM 64.5°F18.1°C 59.6°F15.3°C 84% 2.0 mph N3.2 kmh N 3.0 mph4.8 kmh 29.81 in1009.5 mb 0.00 in0.0 mm 0.00 in0.0 mm 0.00 in0.0 mm
01:35 AM 64.7°F18.2°C 59.4°F15.2°C 83% 3.0 mph N4.8 kmh N 5.0 mph8.0 kmh 29.81 in1009.5 mb 0.00 in0.0 mm 0.00 in0.0 mm 0.00 in0.0 mm
01:40 AM 64.8°F18.2°C 59.5°F15.3°C 83% 2.0 mph N3.2 kmh N 5.0 mph8.0 kmh 29.81 in1009.5 mb 0.00 in0.0 mm 0.00 in0.0 mm 0.00 in0.0 mm
01:45 AM 64.8°F18.2°C 59.5°F15.3°C 83% 1.0 mph N1.6 kmh N 2.0 mph3.2 kmh 29.81 in1009.5 mb 0.00 in0.0 mm 0.00 in0.0 mm 0.00 in0.0 mm
01:50 AM 64.8°F18.2°C 59.5°F15.3°C 83% 2.0 mph N3.2 kmh N 4.0 mph6.4 kmh 29.81 in1009.5 mb 0.00 in0.0 mm 0.00 in0.0 mm 0.00 in0.0 mm
01:55 AM 64.9°F18.3°C 59.3°F15.2°C 82% 3.0 mph N4.8 kmh N 4.0 mph6.4 kmh 29.81 in1009.5 mb 0.00 in0.0 mm 0.00 in0.0 mm 0.00 in0.0 mm
02:00 AM 65.0°F18.3°C 59.4°F15.2°C 82% 2.0 mph N3.2 kmh N 3.0 mph4.8 kmh 29.80 in1009.1 mb 0.00 in0.0 mm 0.00 in0.0 mm 0.00 in0.0 mm
02:05 AM 65.1°F18.4°C 59.5°F15.3°C 82% 2.0 mph N3.2 kmh N 4.0 mph6.4 kmh 29.80 in1009.1 mb 0.00 in0.0 mm 0.00 in0.0 mm 0.00 in0.0 mm
02:10 AM 65.2°F18.4°C 59.6°F15.3°C 82% 2.0 mph N3.2 kmh N 4.0 mph6.4 kmh 29.81 in1009.5 mb 0.00 in0.0 mm 0.00 in0.0 mm 0.00 in0.0 mm
02:15 AM 65.3°F18.5°C 59.7°F15.4°C 82% 2.0 mph N3.2 kmh N 3.0 mph4.8 kmh 29.80 in1009.1 mb 0.00 in0.0 mm 0.00 in0.0 mm 0.00 in0.0 mm
02:20 AM 65.4°F18.6°C 59.4°F15.2°C 81% 1.0 mph N1.6 kmh N 5.0 mph8.0 kmh 29.80 in1009.1 mb 0.00 in0.0 mm 0.00 in0.0 mm 0.00 in0.0 mm
02:25 AM 65.6°F18.7°C 59.6°F15.3°C 81% 3.0 mph N4.8 kmh N 5.0 mph8.0 kmh 29.80 in1009.1 mb 0.00 in0.0 mm 0.00 in0.0 mm 0.00 in0.0 mm
02:30 AM 65.7°F18.7°C 59.7°F15.4°C 81% 1.0 mph N1.6 kmh N 4.0 mph6.4 kmh 29.80 in1009.1 mb 0.00 in0.0 mm 0.00 in0.0 mm 0.00 in0.0 mm
02:35 AM 65.7°F18.7°C 59.7°F15.4°C 81% 1.0 mph N1.6 kmh N 5.0 mph8.0 kmh 29.80 in1009.1 mb 0.00 in0.0 mm 0.00 in0.0 mm 0.00 in0.0 mm
02:40 AM 65.7°F18.7°C 59.7°F15.4°C 81% 1.0 mph N1.6 kmh N 5.0 mph8.0 kmh 29.80 in1009.1 mb 0.00 in0.0 mm 0.00 in0.0 mm 0.00 in0.0 mm
02:45 AM 65.6°F18.7°C 59.6°F15.3°C 81% 3.0 mph N4.8 kmh N 5.0 mph8.0 kmh 29.80 in1009.1 mb 0.00 in0.0 mm 0.00 in0.0 mm 0.00 in0.0 mm
02:50 AM 65.4°F18.6°C 59.4°F15.2°C 81% 4.0 mph N6.4 kmh N 6.0 mph9.7 kmh 29.80 in1009.1 mb 0.00 in0.0 mm 0.00 in0.0 mm 0.00 in0.0 mm
02:55 AM 65.2°F18.4°C 59.2°F15.1°C 81% 2.0 mph N3.2 kmh N 6.0 mph9.7 kmh 29.80 in1009.1 mb 0.00 in0.0 mm 0.00 in0.0 mm 0.00 in0.0 mm
03:00 AM 64.6°F18.1°C 59.0°F15.0°C 82% 1.0 mph N1.6 kmh N 3.0 mph4.8 kmh 29.80 in1009.1 mb 0.00 in0.0 mm 0.00 in0.0 mm 0.00 in0.0 mm
03:05 AM 64.1°F17.8°C 58.8°F14.9°C 83% 2.0 mph N3.2 kmh N 5.0 mph8.0 kmh 29.80 in1009.1 mb 0.00 in0.0 mm 0.00 in0.0 mm 0.00 in0.0 mm
03:10 AM 63.9°F17.7°C 58.6°F14.8°C 83% 2.0 mph N3.2 kmh N 5.0 mph8.0 kmh 29.80 in1009.1 mb 0.00 in0.0 mm 0.00 in0.0 mm 0.00 in0.0 mm
03:15 AM 63.9°F17.7°C 58.3°F14.6°C 82% 2.0 mph N3.2 kmh N 3.0 mph4.8 kmh 29.80 in1009.1 mb 0.00 in0.0 mm 0.00 in0.0 mm 0.00 in0.0 mm
03:20 AM 63.9°F17.7°C 58.0°F14.4°C 81% 1.0 mph N1.6 kmh N 3.0 mph4.8 kmh 29.80 in1009.1 mb 0.00 in0.0 mm 0.00 in0.0 mm 0.00 in0.0 mm
03:25 AM 63.9°F17.7°C 58.0°F14.4°C 81% 2.0 mph N3.2 kmh N 4.0 mph6.4 kmh 29.79 in1008.8 mb 0.00 in0.0 mm 0.00 in0.0 mm 0.00 in0.0 mm
03:30 AM 63.8°F17.7°C 57.9°F14.4°C 81% 2.0 mph N3.2 kmh N 3.0 mph4.8 kmh 29.79 in1008.8 mb 0.00 in0.0 mm 0.00 in0.0 mm 0.00 in0.0 mm
03:35 AM 63.7°F17.6°C 58.1°F14.5°C 82% 2.0 mph N3.2 kmh N 4.0 mph6.4 kmh 29.79 in1008.8 mb 0.00 in0.0 mm 0.00 in0.0 mm 0.00 in0.0 mm
03:40 AM 63.5°F17.5°C 57.9°F14.4°C 82% 2.0 mph N3.2 kmh N 4.0 mph6.4 kmh 29.79 in1008.8 mb 0.00 in0.0 mm 0.00 in0.0 mm 0.00 in0.0 mm
03:45 AM 63.3°F17.4°C 58.1°F14.5°C 83% 2.0 mph N3.2 kmh N 3.0 mph4.8 kmh 29.79 in1008.8 mb 0.00 in0.0 mm 0.00 in0.0 mm 0.00 in0.0 mm
03:50 AM 63.1°F17.3°C 57.9°F14.4°C 83% Calm Calm 3.0 mph4.8 kmh 29.79 in1008.8 mb 0.00 in0.0 mm 0.00 in0.0 mm 0.00 in0.0 mm
03:55 AM 62.8°F17.1°C 57.9°F14.4°C 84% 1.0 mph N1.6 kmh N 3.0 mph4.8 kmh 29.79 in1008.8 mb 0.00 in0.0 mm 0.00 in0.0 mm 0.00 in0.0 mm
04:00 AM 62.6°F17.0°C 57.7°F14.3°C 84% 2.0 mph N3.2 kmh N 4.0 mph6.4 kmh 29.79 in1008.8 mb 0.00 in0.0 mm 0.00 in0.0 mm 0.00 in0.0 mm
04:05 AM 62.5°F16.9°C 57.9°F14.4°C 85% 2.0 mph N3.2 kmh N 5.0 mph8.0 kmh 29.79 in1008.8 mb 0.00 in0.0 mm 0.00 in0.0 mm 0.00 in0.0 mm
04:10 AM 62.4°F16.9°C 57.8°F14.3°C 85% 1.0 mph N1.6 kmh N 5.0 mph8.0 kmh 29.79 in1008.8 mb 0.00 in0.0 mm 0.00 in0.0 mm 0.00 in0.0 mm
04:15 AM 62.5°F16.9°C 57.9°F14.4°C 85% 3.0 mph N4.8 kmh N 3.0 mph4.8 kmh 29.79 in1008.8 mb 0.00 in0.0 mm 0.00 in0.0 mm 0.00 in0.0 mm
04:20 AM 62.6°F17.0°C 58.0°F14.4°C 85% 1.0 mph N1.6 kmh N 5.0 mph8.0 kmh 29.79 in1008.8 mb 0.00 in0.0 mm 0.00 in0.0 mm 0.00 in0.0 mm
04:25 AM 62.8°F17.1°C 57.9°F14.4°C 84% 2.0 mph N3.2 kmh N 7.0 mph11.3 kmh 29.79 in1008.8 mb 0.00 in0.0 mm 0.00 in0.0 mm 0.00 in0.0 mm
04:30 AM 63.1°F17.3°C 58.2°F14.6°C 84% 2.0 mph N3.2 kmh N 2.0 mph3.2 kmh 29.78 in1008.5 mb 0.00 in0.0 mm 0.00 in0.0 mm 0.00 in0.0 mm
04:35 AM 63.5°F17.5°C 58.3°F14.6°C 83% 3.0 mph N4.8 kmh N 6.0 mph9.7 kmh 29.79 in1008.8 mb 0.00 in0.0 mm 0.00 in0.0 mm 0.00 in0.0 mm
04:40 AM 63.9°F17.7°C 58.3°F14.6°C 82% 3.0 mph N4.8 kmh N 6.0 mph9.7 kmh 29.79 in1008.8 mb 0.00 in0.0 mm 0.00 in0.0 mm 0.00 in0.0 mm
04:45 AM 63.9°F17.7°C 58.3°F14.6°C 82% 4.0 mph N6.4 kmh N 4.0 mph6.4 kmh 29.79 in1008.8 mb 0.00 in0.0 mm 0.00 in0.0 mm 0.00 in0.0 mm
04:50 AM 63.6°F17.6°C 58.4°F14.7°C 83% 2.0 mph N3.2 kmh N 5.0 mph8.0 kmh 29.79 in1008.8 mb 0.00 in0.0 mm 0.00 in0.0 mm 0.00 in0.0 mm
04:55 AM 63.4°F17.4°C 58.2°F14.6°C 83% 4.0 mph N6.4 kmh N 5.0 mph8.0 kmh 29.79 in1008.8 mb 0.00 in0.0 mm 0.00 in0.0 mm 0.00 in0.0 mm
05:00 AM 63.3°F17.4°C 58.4°F14.7°C 84% 3.0 mph N4.8 kmh N 4.0 mph6.4 kmh 29.79 in1008.8 mb 0.00 in0.0 mm 0.00 in0.0 mm 0.00 in0.0 mm
05:05 AM 63.2°F17.3°C 58.3°F14.6°C 84% 3.0 mph N4.8 kmh N 4.0 mph6.4 kmh 29.80 in1009.1 mb 0.00 in0.0 mm 0.00 in0.0 mm 0.00 in0.0 mm
05:10 AM 63.1°F17.3°C 58.2°F14.6°C 84% 3.0 mph N4.8 kmh N 5.0 mph8.0 kmh 29.80 in1009.1 mb 0.00 in0.0 mm 0.00 in0.0 mm 0.00 in0.0 mm
05:15 AM 63.1°F17.3°C 58.2°F14.6°C 84% 4.0 mph N6.4 kmh N 4.0 mph6.4 kmh 29.79 in1008.8 mb 0.00 in0.0 mm 0.00 in0.0 mm 0.00 in0.0 mm
05:20 AM 63.1°F17.3°C 58.2°F14.6°C 84% 1.0 mph N1.6 kmh N 4.0 mph6.4 kmh 29.79 in1008.8 mb 0.00 in0.0 mm 0.00 in0.0 mm 0.00 in0.0 mm
05:25 AM 63.1°F17.3°C 58.5°F14.7°C 85% 1.0 mph N1.6 kmh N 4.0 mph6.4 kmh 29.79 in1008.8 mb 0.00 in0.0 mm 0.00 in0.0 mm 0.00 in0.0 mm
05:30 AM 63.0°F17.2°C 58.4°F14.7°C 85% 1.0 mph N1.6 kmh N 2.0 mph3.2 kmh 29.79 in1008.8 mb 0.00 in0.0 mm 0.00 in0.0 mm 0.00 in0.0 mm
05:35 AM 62.9°F17.2°C 58.0°F14.4°C 84% 1.0 mph N1.6 kmh N 5.0 mph8.0 kmh 29.79 in1008.8 mb 0.00 in0.0 mm 0.00 in0.0 mm 0.00 in0.0 mm
05:40 AM 62.9°F17.2°C 58.0°F14.4°C 84% 1.0 mph N1.6 kmh N 5.0 mph8.0 kmh 29.79 in1008.8 mb 0.00 in0.0 mm 0.00 in0.0 mm 0.00 in0.0 mm
05:45 AM 63.1°F17.3°C 58.2°F14.6°C 84% 2.0 mph N3.2 kmh N 2.0 mph3.2 kmh 29.79 in1008.8 mb 0.00 in0.0 mm 0.00 in0.0 mm 0.00 in0.0 mm
05:50 AM 63.5°F17.5°C 58.3°F14.6°C 83% 4.0 mph N6.4 kmh N 6.0 mph9.7 kmh 29.78 in1008.5 mb 0.00 in0.0 mm 0.00 in0.0 mm 0.00 in0.0 mm
05:55 AM 64.0°F17.8°C 58.4°F14.7°C 82% 2.0 mph N3.2 kmh N 6.0 mph9.7 kmh 29.78 in1008.5 mb 0.00 in0.0 mm 0.00 in0.0 mm 0.00 in0.0 mm
06:00 AM 64.3°F17.9°C 58.0°F14.4°C 80% 3.0 mph N4.8 kmh N 3.0 mph4.8 kmh 29.78 in1008.5 mb 0.00 in0.0 mm 0.00 in0.0 mm 0.00 in0.0 mm
06:05 AM 64.5°F18.1°C 58.2°F14.6°C 80% 3.0 mph N4.8 kmh N 6.0 mph9.7 kmh 29.78 in1008.5 mb 0.00 in0.0 mm 0.00 in0.0 mm 0.00 in0.0 mm
06:10 AM 64.7°F18.2°C 58.1°F14.5°C 79% 3.0 mph N4.8 kmh N 6.0 mph9.7 kmh 29.78 in1008.5 mb 0.00 in0.0 mm 0.00 in0.0 mm 0.00 in0.0 mm
06:15 AM 64.8°F18.2°C 57.8°F14.3°C 78% 3.0 mph N4.8 kmh N 5.0 mph8.0 kmh 29.78 in1008.5 mb 0.00 in0.0 mm 0.00 in0.0 mm 0.00 in0.0 mm
06:20 AM 64.8°F18.2°C 57.8°F14.3°C 78% 3.0 mph N4.8 kmh N 6.0 mph9.7 kmh 29.78 in1008.5 mb 0.00 in0.0 mm 0.00 in0.0 mm 0.00 in0.0 mm
06:25 AM 64.7°F18.2°C 57.7°F14.3°C 78% 4.0 mph N6.4 kmh N 6.0 mph9.7 kmh 29.79 in1008.8 mb 0.00 in0.0 mm 0.00 in0.0 mm 0.00 in0.0 mm
06:30 AM 64.5°F18.1°C 57.9°F14.4°C 79% 3.0 mph N4.8 kmh N 5.0 mph8.0 kmh 29.79 in1008.8 mb 0.00 in0.0 mm 0.00 in0.0 mm 0.00 in0.0 mm
06:35 AM 64.2°F17.9°C 57.6°F14.2°C 79% 2.0 mph N3.2 kmh N 5.0 mph8.0 kmh 29.79 in1008.8 mb 0.00 in0.0 mm 0.00 in0.0 mm 0.00 in0.0 mm
06:40 AM 63.8°F17.7°C 57.5°F14.2°C 80% 2.0 mph N3.2 kmh N 7.0 mph11.3 kmh 29.79 in1008.8 mb 0.00 in0.0 mm 0.00 in0.0 mm 0.00 in0.0 mm
06:45 AM 63.8°F17.7°C 57.5°F14.2°C 80% 5.0 mph N8.0 kmh N 5.0 mph8.0 kmh 29.78 in1008.5 mb 0.00 in0.0 mm 0.00 in0.0 mm 0.00 in0.0 mm
06:50 AM 64.0°F17.8°C 57.7°F14.3°C 80% 5.0 mph N8.0 kmh N 5.0 mph8.0 kmh 29.78 in1008.5 mb 0.00 in0.0 mm 0.00 in0.0 mm 0.00 in0.0 mm
06:55 AM 64.3°F17.9°C 58.0°F14.4°C 80% 5.0 mph N8.0 kmh N 7.0 mph11.3 kmh 29.79 in1008.8 mb 0.00 in0.0 mm 0.00 in0.0 mm 0.00 in0.0 mm
07:00 AM 64.6°F18.1°C 58.0°F14.4°C 79% 2.0 mph N3.2 kmh N 2.0 mph3.2 kmh 29.78 in1008.5 mb 0.00 in0.0 mm 0.00 in0.0 mm 0.00 in0.0 mm
07:05 AM 64.8°F18.2°C 58.1°F14.5°C 79% 1.0 mph N1.6 kmh N 4.0 mph6.4 kmh 29.79 in1008.8 mb 0.00 in0.0 mm 0.00 in0.0 mm 0.00 in0.0 mm
07:10 AM 65.1°F18.4°C 58.4°F14.7°C 79% 2.0 mph N3.2 kmh N 5.0 mph8.0 kmh 29.79 in1008.8 mb 0.00 in0.0 mm 0.00 in0.0 mm 0.00 in0.0 mm
07:15 AM 65.5°F18.6°C 58.5°F14.7°C 78% 3.0 mph N4.8 kmh N 4.0 mph6.4 kmh 29.79 in1008.8 mb 0.00 in0.0 mm 0.00 in0.0 mm 0.00 in0.0 mm
07:20 AM 65.9°F18.8°C 58.9°F14.9°C 78% 3.0 mph N4.8 kmh N 4.0 mph6.4 kmh 29.79 in1008.8 mb 0.00 in0.0 mm 0.00 in0.0 mm 0.00 in0.0 mm
07:25 AM 66.1°F18.9°C 59.4°F15.2°C 79% 4.0 mph N6.4 kmh N 8.0 mph12.9 kmh 29.79 in1008.8 mb 0.00 in0.0 mm 0.00 in0.0 mm 0.00 in0.0 mm
07:30 AM 66.4°F19.1°C 59.3°F15.2°C 78% 4.0 mph N6.4 kmh N 4.0 mph6.4 kmh 29.79 in1008.8 mb 0.00 in0.0 mm 0.00 in0.0 mm 0.00 in0.0 mm
07:35 AM 66.8°F19.3°C 59.7°F15.4°C 78% 4.0 mph N6.4 kmh N 7.0 mph11.3 kmh 29.79 in1008.8 mb 0.00 in0.0 mm 0.00 in0.0 mm 0.00 in0.0 mm
07:40 AM 67.2°F19.6°C 59.8°F15.4°C 77% 5.0 mph N8.0 kmh N 12.0 mph19.3 kmh 29.80 in1009.1 mb 0.00 in0.0 mm 0.00 in0.0 mm 0.00 in0.0 mm
07:45 AM 67.5°F19.7°C 60.0°F15.6°C 77% 7.0 mph N11.3 kmh N 8.0 mph12.9 kmh 29.80 in1009.1 mb 0.00 in0.0 mm 0.00 in0.0 mm 0.00 in0.0 mm
07:50 AM 67.9°F19.9°C 60.4°F15.8°C 77% 3.0 mph N4.8 kmh N 8.0 mph12.9 kmh 29.80 in1009.1 mb 0.00 in0.0 mm 0.00 in0.0 mm 0.00 in0.0 mm
07:55 AM 68.3°F20.2°C 60.5°F15.8°C 76% 4.0 mph N6.4 kmh N 10.0 mph16.1 kmh 29.80 in1009.1 mb 0.00 in0.0 mm 0.00 in0.0 mm 0.00 in0.0 mm
08:00 AM 68.7°F20.4°C 60.5°F15.8°C 75% 5.0 mph N8.0 kmh N 6.0 mph9.7 kmh 29.80 in1009.1 mb 0.00 in0.0 mm 0.00 in0.0 mm 0.00 in0.0 mm
08:05 AM 69.2°F20.7°C 61.0°F16.1°C 75% 4.0 mph N6.4 kmh N 9.0 mph14.5 kmh 29.80 in1009.1 mb 0.00 in0.0 mm 0.00 in0.0 mm 0.00 in0.0 mm
08:10 AM 69.7°F20.9°C 61.1°F16.2°C 74% 6.0 mph N9.7 kmh N 9.0 mph14.5 kmh 29.80 in1009.1 mb 0.00 in0.0 mm 0.00 in0.0 mm 0.00 in0.0 mm
08:15 AM 70.2°F21.2°C 61.2°F16.2°C 73% 8.0 mph N12.9 kmh N 8.0 mph12.9 kmh 29.80 in1009.1 mb 0.00 in0.0 mm 0.00 in0.0 mm 0.00 in0.0 mm
08:20 AM 70.7°F21.5°C 61.6°F16.4°C 73% 5.0 mph N8.0 kmh N 12.0 mph19.3 kmh 29.80 in1009.1 mb 0.00 in0.0 mm 0.00 in0.0 mm 0.00 in0.0 mm
08:25 AM 71.1°F21.7°C 61.6°F16.4°C 72% 3.0 mph N4.8 kmh N 13.0 mph20.9 kmh 29.81 in1009.5 mb 0.00 in0.0 mm 0.00 in0.0 mm 0.00 in0.0 mm
08:30 AM 71.5°F21.9°C 62.0°F16.7°C 72% 5.0 mph N8.0 kmh N 8.0 mph12.9 kmh 29.81 in1009.5 mb 0.00 in0.0 mm 0.00 in0.0 mm 0.00 in0.0 mm
08:35 AM 71.9°F22.2°C 62.0°F16.7°C 71% 5.0 mph N8.0 kmh N 10.0 mph16.1 kmh 29.81 in1009.5 mb 0.00 in0.0 mm 0.00 in0.0 mm 0.00 in0.0 mm
08:40 AM 72.4°F22.4°C 62.1°F16.7°C 70% 9.0 mph N14.5 kmh N 12.0 mph19.3 kmh 29.81 in1009.5 mb 0.00 in0.0 mm 0.00 in0.0 mm 0.00 in0.0 mm
08:45 AM 72.8°F22.7°C 61.6°F16.4°C 68% 8.0 mph N12.9 kmh N 10.0 mph16.1 kmh 29.81 in1009.5 mb 0.00 in0.0 mm 0.00 in0.0 mm 0.00 in0.0 mm
08:50 AM 73.1°F22.8°C 61.9°F16.6°C 68% 13.0 mph N20.9 kmh N 13.0 mph20.9 kmh 29.82 in1009.8 mb 0.00 in0.0 mm 0.00 in0.0 mm 0.00 in0.0 mm
08:55 AM 73.1°F22.8°C 61.5°F16.4°C 67% 11.0 mph N17.7 kmh N 17.0 mph27.4 kmh 29.82 in1009.8 mb 0.00 in0.0 mm 0.00 in0.0 mm 0.00 in0.0 mm
09:00 AM 73.0°F22.8°C 61.0°F16.1°C 66% 7.0 mph N11.3 kmh N 7.0 mph11.3 kmh 29.82 in1009.8 mb 0.00 in0.0 mm 0.00 in0.0 mm 0.00 in0.0 mm
09:05 AM 73.0°F22.8°C 60.6°F15.9°C 65% 4.0 mph N6.4 kmh N 13.0 mph20.9 kmh 29.82 in1009.8 mb 0.00 in0.0 mm 0.00 in0.0 mm 0.00 in0.0 mm
09:10 AM 73.0°F22.8°C 60.6°F15.9°C 65% 7.0 mph N11.3 kmh N 13.0 mph20.9 kmh 29.82 in1009.8 mb 0.00 in0.0 mm 0.00 in0.0 mm 0.00 in0.0 mm
09:15 AM 73.1°F22.8°C 60.7°F15.9°C 65% 8.0 mph N12.9 kmh N 13.0 mph20.9 kmh 29.82 in1009.8 mb 0.00 in0.0 mm 0.00 in0.0 mm 0.00 in0.0 mm
09:20 AM 73.3°F22.9°C 60.8°F16.0°C 65% 7.0 mph N11.3 kmh N 13.0 mph20.9 kmh 29.82 in1009.8 mb 0.00 in0.0 mm 0.00 in0.0 mm 0.00 in0.0 mm
09:25 AM 73.5°F23.1°C 60.6°F15.9°C 64% 3.0 mph N4.8 kmh N 13.0 mph20.9 kmh 29.82 in1009.8 mb 0.00 in0.0 mm 0.00 in0.0 mm 0.00 in0.0 mm
09:30 AM 73.8°F23.2°C 61.7°F16.5°C 66% 2.0 mph N3.2 kmh N 4.0 mph6.4 kmh 29.82 in1009.8 mb 0.00 in0.0 mm 0.00 in0.0 mm 0.00 in0.0 mm
09:35 AM 74.2°F23.4°C 61.3°F16.3°C 64% 7.0 mph N11.3 kmh N 9.0 mph14.5 kmh 29.82 in1009.8 mb 0.00 in0.0 mm 0.00 in0.0 mm 0.00 in0.0 mm
09:40 AM 74.6°F23.7°C 59.8°F15.4°C 60% 4.0 mph N6.4 kmh N 9.0 mph14.5 kmh 29.82 in1009.8 mb 0.00 in0.0 mm 0.00 in0.0 mm 0.00 in0.0 mm
09:45 AM 75.0°F23.9°C 59.2°F15.1°C 58% 6.0 mph N9.7 kmh N 6.0 mph9.7 kmh 29.82 in1009.8 mb 0.00 in0.0 mm 0.00 in0.0 mm 0.00 in0.0 mm
09:50 AM 75.4°F24.1°C 59.6°F15.3°C 58% 2.0 mph N3.2 kmh N 10.0 mph16.1 kmh 29.82 in1009.8 mb 0.00 in0.0 mm 0.00 in0.0 mm 0.00 in0.0 mm
09:55 AM 75.9°F24.4°C 59.6°F15.3°C 57% 3.0 mph N4.8 kmh N 10.0 mph16.1 kmh 29.82 in1009.8 mb 0.00 in0.0 mm 0.00 in0.0 mm 0.00 in0.0 mm
10:00 AM 76.3°F24.6°C 57.9°F14.4°C 53% 3.0 mph N4.8 kmh N 4.0 mph6.4 kmh 29.82 in1009.8 mb 0.00 in0.0 mm 0.00 in0.0 mm 0.00 in0.0 mm
10:05 AM 76.7°F24.8°C 58.8°F14.9°C 54% 2.0 mph N3.2 kmh N 9.0 mph14.5 kmh 29.83 in1010.2 mb 0.00 in0.0 mm 0.00 in0.0 mm 0.00 in0.0 mm
10:10 AM 77.3°F25.2°C 58.3°F14.6°C 52% 5.0 mph N8.0 kmh N 9.0 mph14.5 kmh 29.82 in1009.8 mb 0.00 in0.0 mm 0.00 in0.0 mm 0.00 in0.0 mm
10:15 AM 77.8°F25.4°C 57.1°F13.9°C 49% 9.0 mph N14.5 kmh N 9.0 mph14.5 kmh 29.82 in1009.8 mb 0.00 in0.0 mm 0.00 in0.0 mm 0.00 in0.0 mm
10:20 AM 78.2°F25.7°C 58.6°F14.8°C 51% 4.0 mph N6.4 kmh N 10.0 mph16.1 kmh 29.83 in1010.2 mb 0.00 in0.0 mm 0.00 in0.0 mm 0.00 in0.0 mm
10:25 AM 78.6°F25.9°C 58.4°F14.7°C 50% 7.0 mph N11.3 kmh N 11.0 mph17.7 kmh 29.83 in1010.2 mb 0.00 in0.0 mm 0.00 in0.0 mm 0.00 in0.0 mm
10:30 AM 78.9°F26.1°C 58.1°F14.5°C 49% 3.0 mph N4.8 kmh N 3.0 mph4.8 kmh 29.83 in1010.2 mb 0.00 in0.0 mm 0.00 in0.0 mm 0.00 in0.0 mm
10:35 AM 79.3°F26.3°C 57.9°F14.4°C 48% 2.0 mph N3.2 kmh N 9.0 mph14.5 kmh 29.84 in1010.5 mb 0.00 in0.0 mm 0.00 in0.0 mm 0.00 in0.0 mm
10:40 AM 79.8°F26.6°C 59.0°F15.0°C 49% 5.0 mph N8.0 kmh N 9.0 mph14.5 kmh 29.83 in1010.2 mb 0.00 in0.0 mm 0.00 in0.0 mm 0.00 in0.0 mm
10:45 AM 80.1°F26.7°C 57.5°F14.2°C 46% 5.0 mph N8.0 kmh N 5.0 mph8.0 kmh 29.84 in1010.5 mb 0.00 in0.0 mm 0.00 in0.0 mm 0.00 in0.0 mm
10:50 AM 80.1°F26.7°C 58.1°F14.5°C 47% 6.0 mph N9.7 kmh N 9.0 mph14.5 kmh 29.84 in1010.5 mb 0.00 in0.0 mm 0.00 in0.0 mm 0.00 in0.0 mm
10:55 AM 80.1°F26.7°C 59.2°F15.1°C 49% 3.0 mph N4.8 kmh N 11.0 mph17.7 kmh 29.84 in1010.5 mb 0.00 in0.0 mm 0.00 in0.0 mm 0.00 in0.0 mm
11:00 AM 80.2°F26.8°C 58.8°F14.9°C 48% 4.0 mph N6.4 kmh N 4.0 mph6.4 kmh 29.84 in1010.5 mb 0.00 in0.0 mm 0.00 in0.0 mm 0.00 in0.0 mm
11:05 AM 80.3°F26.8°C 58.8°F14.9°C 48% 8.0 mph N12.9 kmh N 11.0 mph17.7 kmh 29.85 in1010.8 mb 0.00 in0.0 mm 0.00 in0.0 mm 0.00 in0.0 mm
11:10 AM 80.5°F26.9°C 58.4°F14.7°C 47% 5.0 mph N8.0 kmh N 11.0 mph17.7 kmh 29.84 in1010.5 mb 0.00 in0.0 mm 0.00 in0.0 mm 0.00 in0.0 mm
11:15 AM 80.5°F26.9°C 57.8°F14.3°C 46% 8.0 mph N12.9 kmh N 9.0 mph14.5 kmh 29.85 in1010.8 mb 0.00 in0.0 mm 0.00 in0.0 mm 0.00 in0.0 mm
11:20 AM 80.7°F27.1°C 58.6°F14.8°C 47% 5.0 mph N8.0 kmh N 11.0 mph17.7 kmh 29.85 in1010.8 mb 0.00 in0.0 mm 0.00 in0.0 mm 0.00 in0.0 mm
11:25 AM 80.9°F27.2°C 58.8°F14.9°C 47% 5.0 mph N8.0 kmh N 11.0 mph17.7 kmh 29.85 in1010.8 mb 0.00 in0.0 mm 0.00 in0.0 mm 0.00 in0.0 mm
11:30 AM 80.8°F27.1°C 59.3°F15.2°C 48% 9.0 mph N14.5 kmh N 9.0 mph14.5 kmh 29.85 in1010.8 mb 0.00 in0.0 mm 0.00 in0.0 mm 0.00 in0.0 mm
11:35 AM 80.8°F27.1°C 60.4°F15.8°C 50% 8.0 mph N12.9 kmh N 13.0 mph20.9 kmh 29.85 in1010.8 mb 0.00 in0.0 mm 0.00 in0.0 mm 0.00 in0.0 mm
11:40 AM 80.7°F27.1°C 60.4°F15.8°C 50% 5.0 mph N8.0 kmh N 13.0 mph20.9 kmh 29.85 in1010.8 mb 0.00 in0.0 mm 0.00 in0.0 mm 0.00 in0.0 mm
11:45 AM 80.9°F27.2°C 61.1°F16.2°C 51% 5.0 mph N8.0 kmh N 10.0 mph16.1 kmh 29.85 in1010.8 mb 0.00 in0.0 mm 0.00 in0.0 mm 0.00 in0.0 mm
11:50 AM 81.0°F27.2°C 60.6°F15.9°C 50% 7.0 mph N11.3 kmh N 10.0 mph16.1 kmh 29.85 in1010.8 mb 0.00 in0.0 mm 0.00 in0.0 mm 0.00 in0.0 mm
11:55 AM 81.3°F27.4°C 60.3°F15.7°C 49% 3.0 mph N4.8 kmh N 10.0 mph16.1 kmh 29.85 in1010.8 mb 0.00 in0.0 mm 0.00 in0.0 mm 0.00 in0.0 mm
12:00 PM 81.4°F27.4°C 58.0°F14.4°C 45% 9.0 mph N14.5 kmh N 11.0 mph17.7 kmh 29.85 in1010.8 mb 0.00 in0.0 mm 0.00 in0.0 mm 0.00 in0.0 mm
12:05 PM 81.4°F27.4°C 56.8°F13.8°C 43% 5.0 mph N8.0 kmh N 13.0 mph20.9 kmh 29.85 in1010.8 mb 0.00 in0.0 mm 0.00 in0.0 mm 0.00 in0.0 mm
12:10 PM 81.2°F27.3°C 56.6°F13.7°C 43% 9.0 mph N14.5 kmh N 13.0 mph20.9 kmh 29.85 in1010.8 mb 0.00 in0.0 mm 0.00 in0.0 mm 0.00 in0.0 mm
12:15 PM 81.1°F27.3°C 56.5°F13.6°C 43% 5.0 mph N8.0 kmh N 13.0 mph20.9 kmh 29.85 in1010.8 mb 0.00 in0.0 mm 0.00 in0.0 mm 0.00 in0.0 mm
12:20 PM 81.1°F27.3°C 57.8°F14.3°C 45% 6.0 mph N9.7 kmh N 13.0 mph20.9 kmh 29.85 in1010.8 mb 0.00 in0.0 mm 0.00 in0.0 mm 0.00 in0.0 mm
12:25 PM 81.2°F27.3°C 58.5°F14.7°C 46% 10.0 mph N16.1 kmh N 13.0 mph20.9 kmh 29.85 in1010.8 mb 0.00 in0.0 mm 0.00 in0.0 mm 0.00 in0.0 mm
12:30 PM 81.5°F27.5°C 57.5°F14.2°C 44% 7.0 mph N11.3 kmh N 11.0 mph17.7 kmh 29.85 in1010.8 mb 0.00 in0.0 mm 0.00 in0.0 mm 0.00 in0.0 mm
12:35 PM 81.7°F27.6°C 58.3°F14.6°C 45% 8.0 mph N12.9 kmh N 14.0 mph22.5 kmh 29.85 in1010.8 mb 0.00 in0.0 mm 0.00 in0.0 mm 0.00 in0.0 mm
12:40 PM 81.8°F27.7°C 59.0°F15.0°C 46% 6.0 mph N9.7 kmh N 14.0 mph22.5 kmh 29.85 in1010.8 mb 0.00 in0.0 mm 0.00 in0.0 mm 0.00 in0.0 mm
12:45 PM 82.0°F27.8°C 58.0°F14.4°C 44% 6.0 mph N9.7 kmh N 10.0 mph16.1 kmh 29.85 in1010.8 mb 0.00 in0.0 mm 0.00 in0.0 mm 0.00 in0.0 mm
12:50 PM 82.1°F27.8°C 58.1°F14.5°C 44% 13.0 mph N20.9 kmh N 13.0 mph20.9 kmh 29.85 in1010.8 mb 0.00 in0.0 mm 0.00 in0.0 mm 0.00 in0.0 mm
12:55 PM 82.3°F27.9°C 56.3°F13.5°C 41% 8.0 mph N12.9 kmh N 16.0 mph25.7 kmh 29.85 in1010.8 mb 0.00 in0.0 mm 0.00 in0.0 mm 0.00 in0.0 mm
01:00 PM 82.5°F28.1°C 57.8°F14.3°C 43% 5.0 mph N8.0 kmh N 13.0 mph20.9 kmh 29.85 in1010.8 mb 0.00 in0.0 mm 0.00 in0.0 mm 0.00 in0.0 mm
01:05 PM 82.7°F28.2°C 55.3°F12.9°C 39% 6.0 mph N9.7 kmh N 19.0 mph30.6 kmh 29.85 in1010.8 mb 0.00 in0.0 mm 0.00 in0.0 mm 0.00 in0.0 mm
01:10 PM 82.9°F28.3°C 55.4°F13.0°C 39% 5.0 mph N8.0 kmh N 20.0 mph32.2 kmh 29.85 in1010.8 mb 0.00 in0.0 mm 0.00 in0.0 mm 0.00 in0.0 mm
01:15 PM 82.8°F28.2°C 56.0°F13.3°C 40% 7.0 mph N11.3 kmh N 9.0 mph14.5 kmh 29.85 in1010.8 mb 0.00 in0.0 mm 0.00 in0.0 mm 0.00 in0.0 mm
01:20 PM 83.0°F28.3°C 58.2°F14.6°C 43% 5.0 mph N8.0 kmh N 13.0 mph20.9 kmh 29.85 in1010.8 mb 0.00 in0.0 mm 0.00 in0.0 mm 0.00 in0.0 mm
01:25 PM 83.3°F28.5°C 57.2°F14.0°C 41% 4.0 mph N6.4 kmh N 14.0 mph22.5 kmh 29.85 in1010.8 mb 0.00 in0.0 mm 0.00 in0.0 mm 0.00 in0.0 mm
01:30 PM 83.5°F28.6°C 56.7°F13.7°C 40% 5.0 mph N8.0 kmh N 8.0 mph12.9 kmh 29.84 in1010.5 mb 0.00 in0.0 mm 0.00 in0.0 mm 0.00 in0.0 mm
01:35 PM 83.7°F28.7°C 55.4°F13.0°C 38% 13.0 mph N20.9 kmh N 17.0 mph27.4 kmh 29.84 in1010.5 mb 0.00 in0.0 mm 0.00 in0.0 mm 0.00 in0.0 mm
01:40 PM 83.9°F28.8°C 54.9°F12.7°C 37% 10.0 mph N16.1 kmh N 17.0 mph27.4 kmh 29.85 in1010.8 mb 0.00 in0.0 mm 0.00 in0.0 mm 0.00 in0.0 mm
01:45 PM 84.1°F28.9°C 53.5°F11.9°C 35% 6.0 mph N9.7 kmh N 6.0 mph9.7 kmh 29.85 in1010.8 mb 0.00 in0.0 mm 0.00 in0.0 mm 0.00 in0.0 mm
01:50 PM 84.4°F29.1°C 54.6°F12.6°C 36% 6.0 mph N9.7 kmh N 15.0 mph24.1 kmh 29.84 in1010.5 mb 0.00 in0.0 mm 0.00 in0.0 mm 0.00 in0.0 mm
01:55 PM 84.7°F29.3°C 55.6°F13.1°C 37% 8.0 mph N12.9 kmh N 15.0 mph24.1 kmh 29.84 in1010.5 mb 0.00 in0.0 mm 0.00 in0.0 mm 0.00 in0.0 mm
02:00 PM 85.0°F29.4°C 57.3°F14.1°C 39% 7.0 mph N11.3 kmh N 11.0 mph17.7 kmh 29.84 in1010.5 mb 0.00 in0.0 mm 0.00 in0.0 mm 0.00 in0.0 mm
02:05 PM 85.2°F29.6°C 53.7°F12.1°C 34% 14.0 mph N22.5 kmh N 20.0 mph32.2 kmh 29.84 in1010.5 mb 0.00 in0.0 mm 0.00 in0.0 mm 0.00 in0.0 mm
02:10 PM 85.2°F29.6°C 53.7°F12.1°C 34% 8.0 mph N12.9 kmh N 21.0 mph33.8 kmh 29.84 in1010.5 mb 0.00 in0.0 mm 0.00 in0.0 mm 0.00 in0.0 mm
02:15 PM 85.4°F29.7°C 55.4°F13.0°C 36% 5.0 mph N8.0 kmh N 12.0 mph19.3 kmh 29.84 in1010.5 mb 0.00 in0.0 mm 0.00 in0.0 mm 0.00 in0.0 mm
02:20 PM 85.5°F29.7°C 57.0°F13.9°C 38% 10.0 mph N16.1 kmh N 14.0 mph22.5 kmh 29.84 in1010.5 mb 0.00 in0.0 mm 0.00 in0.0 mm 0.00 in0.0 mm
02:25 PM 85.7°F29.8°C 54.9°F12.7°C 35% 6.0 mph N9.7 kmh N 18.0 mph29.0 kmh 29.84 in1010.5 mb 0.00 in0.0 mm 0.00 in0.0 mm 0.00 in0.0 mm
02:30 PM 85.7°F29.8°C 54.9°F12.7°C 35% 5.0 mph N8.0 kmh N 7.0 mph11.3 kmh 29.84 in1010.5 mb 0.00 in0.0 mm 0.00 in0.0 mm 0.00 in0.0 mm
02:35 PM 85.8°F29.9°C 56.6°F13.7°C 37% 11.0 mph N17.7 kmh N 17.0 mph27.4 kmh 29.84 in1010.5 mb 0.00 in0.0 mm 0.00 in0.0 mm 0.00 in0.0 mm
02:40 PM 85.9°F29.9°C 55.1°F12.8°C 35% 9.0 mph N14.5 kmh N 21.0 mph33.8 kmh 29.84 in1010.5 mb 0.00 in0.0 mm 0.00 in0.0 mm 0.00 in0.0 mm
02:45 PM 85.7°F29.8°C 55.7°F13.2°C 36% 5.0 mph N8.0 kmh N 9.0 mph14.5 kmh 29.84 in1010.5 mb 0.00 in0.0 mm 0.00 in0.0 mm 0.00 in0.0 mm
02:50 PM 85.7°F29.8°C 55.7°F13.2°C 36% 11.0 mph N17.7 kmh N 17.0 mph27.4 kmh 29.84 in1010.5 mb 0.00 in0.0 mm 0.00 in0.0 mm 0.00 in0.0 mm
02:55 PM 85.6°F29.8°C 54.8°F12.7°C 35% 10.0 mph N16.1 kmh N 18.0 mph29.0 kmh 29.84 in1010.5 mb 0.00 in0.0 mm 0.00 in0.0 mm 0.00 in0.0 mm
03:00 PM 85.6°F29.8°C 55.6°F13.1°C 36% 17.0 mph N27.4 kmh N 18.0 mph29.0 kmh 29.84 in1010.5 mb 0.00 in0.0 mm 0.00 in0.0 mm 0.00 in0.0 mm
03:03 PM 85.8°F29.9°C 55.8°F13.2°C 36% 11.0 mph N17.7 kmh N 20.0 mph32.2 kmh 29.84 in1010.5 mb 0.00 in0.0 mm 0.00 in0.0 mm 0.00 in0.0 mm
03:05 PM 85.9°F29.9°C 56.6°F13.7°C 37% 12.0 mph N19.3 kmh N 21.0 mph33.8 kmh 29.84 in1010.5 mb 0.00 in0.0 mm 0.00 in0.0 mm 0.00 in0.0 mm
03:10 PM 86.0°F30.0°C 56.0°F13.3°C 36% 4.0 mph N6.4 kmh N 21.0 mph33.8 kmh 29.84 in1010.5 mb 0.00 in0.0 mm 0.00 in0.0 mm 0.00 in0.0 mm
03:15 PM 85.9°F29.9°C 55.9°F13.3°C 36% 6.0 mph N9.7 kmh N 17.0 mph27.4 kmh 29.84 in1010.5 mb 0.00 in0.0 mm 0.00 in0.0 mm 0.00 in0.0 mm
03:20 PM 85.7°F29.8°C 55.7°F13.2°C 36% 4.0 mph N6.4 kmh N 20.0 mph32.2 kmh 29.84 in1010.5 mb 0.00 in0.0 mm 0.00 in0.0 mm 0.00 in0.0 mm
03:25 PM 85.7°F29.8°C 57.2°F14.0°C 38% 4.0 mph N6.4 kmh N 20.0 mph32.2 kmh 29.84 in1010.5 mb 0.00 in0.0 mm 0.00 in0.0 mm 0.00 in0.0 mm
03:30 PM 86.0°F30.0°C 57.5°F14.2°C 38% 10.0 mph N16.1 kmh N 15.0 mph24.1 kmh 29.84 in1010.5 mb 0.00 in0.0 mm 0.00 in0.0 mm 0.00 in0.0 mm
03:35 PM 86.2°F30.1°C 57.6°F14.2°C 38% 6.0 mph N9.7 kmh N 19.0 mph30.6 kmh 29.84 in1010.5 mb 0.00 in0.0 mm 0.00 in0.0 mm 0.00 in0.0 mm
03:40 PM 86.3°F30.2°C 57.7°F14.3°C 38% 5.0 mph N8.0 kmh N 19.0 mph30.6 kmh 29.84 in1010.5 mb 0.00 in0.0 mm 0.00 in0.0 mm 0.00 in0.0 mm
03:45 PM 86.5°F30.3°C 57.2°F14.0°C 37% 6.0 mph N9.7 kmh N 6.0 mph9.7 kmh 29.84 in1010.5 mb 0.00 in0.0 mm 0.00 in0.0 mm 0.00 in0.0 mm
03:50 PM 86.3°F30.2°C 55.5°F13.1°C 35% 11.0 mph N17.7 kmh N 15.0 mph24.1 kmh 29.84 in1010.5 mb 0.00 in0.0 mm 0.00 in0.0 mm 0.00 in0.0 mm
03:55 PM 86.6°F30.3°C 58.7°F14.8°C 39% 9.0 mph N14.5 kmh N 15.0 mph24.1 kmh 29.84 in1010.5 mb 0.00 in0.0 mm 0.00 in0.0 mm 0.00 in0.0 mm
04:00 PM 86.7°F30.4°C 56.6°F13.7°C 36% 6.0 mph N9.7 kmh N 9.0 mph14.5 kmh 29.84 in1010.5 mb 0.00 in0.0 mm 0.00 in0.0 mm 0.00 in0.0 mm
04:05 PM 86.6°F30.3°C 54.9°F12.7°C 34% 17.0 mph N27.4 kmh N 21.0 mph33.8 kmh 29.84 in1010.5 mb 0.00 in0.0 mm 0.00 in0.0 mm 0.00 in0.0 mm
04:10 PM 86.8°F30.4°C 56.7°F13.7°C 36% 12.0 mph N19.3 kmh N 21.0 mph33.8 kmh 29.84 in1010.5 mb 0.00 in0.0 mm 0.00 in0.0 mm 0.00 in0.0 mm
04:15 PM 86.9°F30.5°C 55.2°F12.9°C 34% 13.0 mph N20.9 kmh N 20.0 mph32.2 kmh 29.84 in1010.5 mb 0.00 in0.0 mm 0.00 in0.0 mm 0.00 in0.0 mm
04:20 PM 86.8°F30.4°C 55.9°F13.3°C 35% 9.0 mph N14.5 kmh N 20.0 mph32.2 kmh 29.83 in1010.2 mb 0.00 in0.0 mm 0.00 in0.0 mm 0.00 in0.0 mm
04:25 PM 86.8°F30.4°C 54.3°F12.4°C 33% 13.0 mph N20.9 kmh N 25.0 mph40.2 kmh 29.84 in1010.5 mb 0.00 in0.0 mm 0.00 in0.0 mm 0.00 in0.0 mm
04:30 PM 86.9°F30.5°C 56.8°F13.8°C 36% 7.0 mph N11.3 kmh N 11.0 mph17.7 kmh 29.83 in1010.2 mb 0.00 in0.0 mm 0.00 in0.0 mm 0.00 in0.0 mm
04:35 PM 86.6°F30.3°C 54.1°F12.3°C 33% 13.0 mph N20.9 kmh N 20.0 mph32.2 kmh 29.84 in1010.5 mb 0.00 in0.0 mm 0.00 in0.0 mm 0.00 in0.0 mm
04:40 PM 86.6°F30.3°C 54.1°F12.3°C 33% 5.0 mph N8.0 kmh N 20.0 mph32.2 kmh 29.84 in1010.5 mb 0.00 in0.0 mm 0.00 in0.0 mm 0.00 in0.0 mm
04:45 PM 86.7°F30.4°C 54.2°F12.3°C 33% 13.0 mph N20.9 kmh N 19.0 mph30.6 kmh 29.83 in1010.2 mb 0.00 in0.0 mm 0.00 in0.0 mm 0.00 in0.0 mm
04:50 PM 86.7°F30.4°C 54.2°F12.3°C 33% 14.0 mph N22.5 kmh N 19.0 mph30.6 kmh 29.84 in1010.5 mb 0.00 in0.0 mm 0.00 in0.0 mm 0.00 in0.0 mm
04:55 PM 86.8°F30.4°C 55.1°F12.8°C 34% 13.0 mph N20.9 kmh N 23.0 mph37.0 kmh 29.84 in1010.5 mb 0.00 in0.0 mm 0.00 in0.0 mm 0.00 in0.0 mm
05:00 PM 86.9°F30.5°C 54.4°F12.4°C 33% 13.0 mph N20.9 kmh N 15.0 mph24.1 kmh 29.84 in1010.5 mb 0.00 in0.0 mm 0.00 in0.0 mm 0.00 in0.0 mm
05:05 PM 86.8°F30.4°C 54.3°F12.4°C 33% 9.0 mph N14.5 kmh N 19.0 mph30.6 kmh 29.84 in1010.5 mb 0.00 in0.0 mm 0.00 in0.0 mm 0.00 in0.0 mm
05:10 PM 86.7°F30.4°C 55.0°F12.8°C 34% 4.0 mph N6.4 kmh N 21.0 mph33.8 kmh 29.84 in1010.5 mb 0.00 in0.0 mm 0.00 in0.0 mm 0.00 in0.0 mm
05:15 PM 86.4°F30.2°C 53.9°F12.2°C 33% 7.0 mph N11.3 kmh N 14.0 mph22.5 kmh 29.84 in1010.5 mb 0.00 in0.0 mm 0.00 in0.0 mm 0.00 in0.0 mm
05:20 PM 86.5°F30.3°C 54.0°F12.2°C 33% 11.0 mph N17.7 kmh N 18.0 mph29.0 kmh 29.84 in1010.5 mb 0.00 in0.0 mm 0.00 in0.0 mm 0.00 in0.0 mm
05:25 PM 86.6°F30.3°C 54.9°F12.7°C 34% 3.0 mph N4.8 kmh N 19.0 mph30.6 kmh 29.84 in1010.5 mb 0.00 in0.0 mm 0.00 in0.0 mm 0.00 in0.0 mm
05:30 PM 86.8°F30.4°C 54.3°F12.4°C 33% 17.0 mph N27.4 kmh N 17.0 mph27.4 kmh 29.84 in1010.5 mb 0.00 in0.0 mm 0.00 in0.0 mm 0.00 in0.0 mm
05:35 PM 86.8°F30.4°C 53.4°F11.9°C 32% 9.0 mph N14.5 kmh N 22.0 mph35.4 kmh 29.84 in1010.5 mb 0.00 in0.0 mm 0.00 in0.0 mm 0.00 in0.0 mm
05:40 PM 86.7°F30.4°C 54.2°F12.3°C 33% 6.0 mph N9.7 kmh N 22.0 mph35.4 kmh 29.84 in1010.5 mb 0.00 in0.0 mm 0.00 in0.0 mm 0.00 in0.0 mm
05:45 PM 86.5°F30.3°C 53.2°F11.8°C 32% 14.0 mph N22.5 kmh N 17.0 mph27.4 kmh 29.84 in1010.5 mb 0.00 in0.0 mm 0.00 in0.0 mm 0.00 in0.0 mm
05:50 PM 86.4°F30.2°C 53.1°F11.7°C 32% 6.0 mph N9.7 kmh N 21.0 mph33.8 kmh 29.84 in1010.5 mb 0.00 in0.0 mm 0.00 in0.0 mm 0.00 in0.0 mm
05:55 PM 86.4°F30.2°C 53.9°F12.2°C 33% 5.0 mph N8.0 kmh N 21.0 mph33.8 kmh 29.84 in1010.5 mb 0.00 in0.0 mm 0.00 in0.0 mm 0.00 in0.0 mm
06:00 PM 86.3°F30.2°C 54.7°F12.6°C 34% 6.0 mph N9.7 kmh N 12.0 mph19.3 kmh 29.84 in1010.5 mb 0.00 in0.0 mm 0.00 in0.0 mm 0.00 in0.0 mm
06:05 PM 86.3°F30.2°C 53.8°F12.1°C 33% 4.0 mph N6.4 kmh N 15.0 mph24.1 kmh 29.84 in1010.5 mb 0.00 in0.0 mm 0.00 in0.0 mm 0.00 in0.0 mm
06:10 PM 86.1°F30.1°C 54.5°F12.5°C 34% 11.0 mph N17.7 kmh N 18.0 mph29.0 kmh 29.84 in1010.5 mb 0.00 in0.0 mm 0.00 in0.0 mm 0.00 in0.0 mm
06:15 PM 86.2°F30.1°C 55.4°F13.0°C 35% 5.0 mph N8.0 kmh N 9.0 mph14.5 kmh 29.84 in1010.5 mb 0.00 in0.0 mm 0.00 in0.0 mm 0.00 in0.0 mm
06:20 PM 86.3°F30.2°C 56.2°F13.4°C 36% 4.0 mph N6.4 kmh N 13.0 mph20.9 kmh 29.84 in1010.5 mb 0.00 in0.0 mm 0.00 in0.0 mm 0.00 in0.0 mm
06:25 PM 86.1°F30.1°C 56.1°F13.4°C 36% 5.0 mph N8.0 kmh N 13.0 mph20.9 kmh 29.84 in1010.5 mb 0.00 in0.0 mm 0.00 in0.0 mm 0.00 in0.0 mm
06:30 PM 86.0°F30.0°C 56.7°F13.7°C 37% 3.0 mph N4.8 kmh N 7.0 mph11.3 kmh 29.84 in1010.5 mb 0.00 in0.0 mm 0.00 in0.0 mm 0.00 in0.0 mm
06:35 PM 85.7°F29.8°C 57.9°F14.4°C 39% 5.0 mph N8.0 kmh N 11.0 mph17.7 kmh 29.84 in1010.5 mb 0.00 in0.0 mm 0.00 in0.0 mm 0.00 in0.0 mm
06:40 PM 85.4°F29.7°C 58.4°F14.7°C 40% 9.0 mph N14.5 kmh N 11.0 mph17.7 kmh 29.84 in1010.5 mb 0.00 in0.0 mm 0.00 in0.0 mm 0.00 in0.0 mm
06:45 PM 85.1°F29.5°C 57.4°F14.1°C 39% 6.0 mph N9.7 kmh N 8.0 mph12.9 kmh 29.84 in1010.5 mb 0.00 in0.0 mm 0.00 in0.0 mm 0.00 in0.0 mm
06:50 PM 84.7°F29.3°C 57.0°F13.9°C 39% 2.0 mph N3.2 kmh N 12.0 mph19.3 kmh 29.84 in1010.5 mb 0.00 in0.0 mm 0.00 in0.0 mm 0.00 in0.0 mm
06:55 PM 84.4°F29.1°C 58.2°F14.6°C 41% 6.0 mph N9.7 kmh N 12.0 mph19.3 kmh 29.84 in1010.5 mb 0.00 in0.0 mm 0.00 in0.0 mm 0.00 in0.0 mm
07:00 PM 84.0°F28.9°C 57.1°F13.9°C 40% 3.0 mph N4.8 kmh N 5.0 mph8.0 kmh 29.84 in1010.5 mb 0.00 in0.0 mm 0.00 in0.0 mm 0.00 in0.0 mm
07:05 PM 83.6°F28.7°C 58.1°F14.5°C 42% 4.0 mph N6.4 kmh N 12.0 mph19.3 kmh 29.84 in1010.5 mb 0.00 in0.0 mm 0.00 in0.0 mm 0.00 in0.0 mm
07:10 PM 83.3°F28.5°C 57.2°F14.0°C 41% 2.0 mph N3.2 kmh N 14.0 mph22.5 kmh 29.84 in1010.5 mb 0.00 in0.0 mm 0.00 in0.0 mm 0.00 in0.0 mm
07:15 PM 83.0°F28.3°C 57.6°F14.2°C 42% 4.0 mph N6.4 kmh N 9.0 mph14.5 kmh 29.84 in1010.5 mb 0.00 in0.0 mm 0.00 in0.0 mm 0.00 in0.0 mm
07:20 PM 82.8°F28.2°C 58.7°F14.8°C 44% 4.0 mph N6.4 kmh N 9.0 mph14.5 kmh 29.85 in1010.8 mb 0.00 in0.0 mm 0.00 in0.0 mm 0.00 in0.0 mm
07:25 PM 82.5°F28.1°C 59.7°F15.4°C 46% 3.0 mph N4.8 kmh N 11.0 mph17.7 kmh 29.85 in1010.8 mb 0.00 in0.0 mm 0.00 in0.0 mm 0.00 in0.0 mm
07:30 PM 82.1°F27.8°C 59.3°F15.2°C 46% 3.0 mph N4.8 kmh N 6.0 mph9.7 kmh 29.85 in1010.8 mb 0.00 in0.0 mm 0.00 in0.0 mm 0.00 in0.0 mm
07:35 PM 81.8°F27.7°C 59.0°F15.0°C 46% 4.0 mph N6.4 kmh N 10.0 mph16.1 kmh 29.85 in1010.8 mb 0.00 in0.0 mm 0.00 in0.0 mm 0.00 in0.0 mm
07:40 PM 81.4°F27.4°C 58.7°F14.8°C 46% 3.0 mph N4.8 kmh N 10.0 mph16.1 kmh 29.85 in1010.8 mb 0.00 in0.0 mm 0.00 in0.0 mm 0.00 in0.0 mm
07:45 PM 81.0°F27.2°C 58.3°F14.6°C 46% 4.0 mph N6.4 kmh N 6.0 mph9.7 kmh 29.85 in1010.8 mb 0.00 in0.0 mm 0.00 in0.0 mm 0.00 in0.0 mm
07:50 PM 80.8°F27.1°C 58.7°F14.8°C 47% 6.0 mph N9.7 kmh N 8.0 mph12.9 kmh 29.85 in1010.8 mb 0.00 in0.0 mm 0.00 in0.0 mm 0.00 in0.0 mm
07:55 PM 80.5°F26.9°C 58.4°F14.7°C 47% 5.0 mph N8.0 kmh N 8.0 mph12.9 kmh 29.85 in1010.8 mb 0.00 in0.0 mm 0.00 in0.0 mm 0.00 in0.0 mm
08:00 PM 80.2°F26.8°C 58.8°F14.9°C 48% 3.0 mph N4.8 kmh N 5.0 mph8.0 kmh 29.85 in1010.8 mb 0.00 in0.0 mm 0.00 in0.0 mm 0.00 in0.0 mm
08:05 PM 80.0°F26.7°C 59.1°F15.1°C 49% 4.0 mph N6.4 kmh N 6.0 mph9.7 kmh 29.85 in1010.8 mb 0.00 in0.0 mm 0.00 in0.0 mm 0.00 in0.0 mm
08:10 PM 79.7°F26.5°C 59.4°F15.2°C 50% 3.0 mph N4.8 kmh N 8.0 mph12.9 kmh 29.85 in1010.8 mb 0.00 in0.0 mm 0.00 in0.0 mm 0.00 in0.0 mm
08:15 PM 79.5°F26.4°C 59.3°F15.2°C 50% 1.0 mph N1.6 kmh N 5.0 mph8.0 kmh 29.86 in1011.2 mb 0.00 in0.0 mm 0.00 in0.0 mm 0.00 in0.0 mm
08:20 PM 79.2°F26.2°C 59.5°F15.3°C 51% 1.0 mph N1.6 kmh N 7.0 mph11.3 kmh 29.85 in1010.8 mb 0.00 in0.0 mm 0.00 in0.0 mm 0.00 in0.0 mm
08:25 PM 78.9°F26.1°C 59.3°F15.2°C 51% 3.0 mph N4.8 kmh N 7.0 mph11.3 kmh 29.86 in1011.2 mb 0.00 in0.0 mm 0.00 in0.0 mm 0.00 in0.0 mm
08:30 PM 78.6°F25.9°C 59.5°F15.3°C 52% 3.0 mph N4.8 kmh N 4.0 mph6.4 kmh 29.86 in1011.2 mb 0.00 in0.0 mm 0.00 in0.0 mm 0.00 in0.0 mm
08:35 PM 78.2°F25.7°C 59.7°F15.4°C 53% 2.0 mph N3.2 kmh N 5.0 mph8.0 kmh 29.86 in1011.2 mb 0.00 in0.0 mm 0.00 in0.0 mm 0.00 in0.0 mm
08:40 PM 77.9°F25.5°C 59.9°F15.5°C 54% 2.0 mph N3.2 kmh N 6.0 mph9.7 kmh 29.86 in1011.2 mb 0.00 in0.0 mm 0.00 in0.0 mm 0.00 in0.0 mm
08:45 PM 77.5°F25.3°C 59.6°F15.3°C 54% 2.0 mph N3.2 kmh N 4.0 mph6.4 kmh 29.86 in1011.2 mb 0.00 in0.0 mm 0.00 in0.0 mm 0.00 in0.0 mm
08:50 PM 77.1°F25.1°C 59.7°F15.4°C 55% 3.0 mph N4.8 kmh N 5.0 mph8.0 kmh 29.86 in1011.2 mb 0.00 in0.0 mm 0.00 in0.0 mm 0.00 in0.0 mm
08:55 PM 76.6°F24.8°C 59.8°F15.4°C 56% 2.0 mph N3.2 kmh N 5.0 mph8.0 kmh 29.86 in1011.2 mb 0.00 in0.0 mm 0.00 in0.0 mm 0.00 in0.0 mm
09:00 PM 76.2°F24.6°C 59.9°F15.5°C 57% 3.0 mph N4.8 kmh N 4.0 mph6.4 kmh 29.86 in1011.2 mb 0.00 in0.0 mm 0.00 in0.0 mm 0.00 in0.0 mm
09:05 PM 75.7°F24.3°C 59.9°F15.5°C 58% 2.0 mph N3.2 kmh N 4.0 mph6.4 kmh 29.87 in1011.5 mb 0.00 in0.0 mm 0.00 in0.0 mm 0.00 in0.0 mm
09:10 PM 75.3°F24.1°C 60.5°F15.8°C 60% 2.0 mph N3.2 kmh N 4.0 mph6.4 kmh 29.87 in1011.5 mb 0.00 in0.0 mm 0.00 in0.0 mm 0.00 in0.0 mm
09:15 PM 74.8°F23.8°C 60.0°F15.6°C 60% 1.0 mph N1.6 kmh N 3.0 mph4.8 kmh 29.87 in1011.5 mb 0.00 in0.0 mm 0.00 in0.0 mm 0.00 in0.0 mm
09:20 PM 74.3°F23.5°C 60.0°F15.6°C 61% 2.0 mph N3.2 kmh N 5.0 mph8.0 kmh 29.87 in1011.5 mb 0.00 in0.0 mm 0.00 in0.0 mm 0.00 in0.0 mm
09:25 PM 73.7°F23.2°C 60.3°F15.7°C 63% 2.0 mph N3.2 kmh N 5.0 mph8.0 kmh 29.87 in1011.5 mb 0.00 in0.0 mm 0.00 in0.0 mm 0.00 in0.0 mm
09:30 PM 73.2°F22.9°C 60.3°F15.7°C 64% 1.0 mph N1.6 kmh N 2.0 mph3.2 kmh 29.87 in1011.5 mb 0.00 in0.0 mm 0.00 in0.0 mm 0.00 in0.0 mm
09:35 PM 72.5°F22.5°C 60.9°F16.1°C 67% 3.0 mph N4.8 kmh N 3.0 mph4.8 kmh 29.88 in1011.9 mb 0.00 in0.0 mm 0.00 in0.0 mm 0.00 in0.0 mm
09:40 PM 71.8°F22.1°C 60.7°F15.9°C 68% 2.0 mph N3.2 kmh N 3.0 mph4.8 kmh 29.88 in1011.9 mb 0.00 in0.0 mm 0.00 in0.0 mm 0.00 in0.0 mm
09:45 PM 71.2°F21.8°C 60.5°F15.8°C 69% 2.0 mph N3.2 kmh N 2.0 mph3.2 kmh 29.88 in1011.9 mb 0.00 in0.0 mm 0.00 in0.0 mm 0.00 in0.0 mm
09:50 PM 70.6°F21.4°C 60.4°F15.8°C 70% 2.0 mph N3.2 kmh N 4.0 mph6.4 kmh 29.89 in1012.2 mb 0.00 in0.0 mm 0.00 in0.0 mm 0.00 in0.0 mm
09:55 PM 70.1°F21.2°C 59.9°F15.5°C 70% Calm Calm 4.0 mph6.4 kmh 29.88 in1011.9 mb 0.00 in0.0 mm 0.00 in0.0 mm 0.00 in0.0 mm
10:00 PM 69.7°F20.9°C 59.9°F15.5°C 71% Calm Calm 1.0 mph1.6 kmh 29.89 in1012.2 mb 0.00 in0.0 mm 0.00 in0.0 mm 0.00 in0.0 mm
10:05 PM 69.3°F20.7°C 59.5°F15.3°C 71% 2.0 mph N3.2 kmh N 3.0 mph4.8 kmh 29.89 in1012.2 mb 0.00 in0.0 mm 0.00 in0.0 mm 0.00 in0.0 mm
10:10 PM 69.0°F20.6°C 59.6°F15.3°C 72% 1.0 mph N1.6 kmh N 3.0 mph4.8 kmh 29.89 in1012.2 mb 0.00 in0.0 mm 0.00 in0.0 mm 0.00 in0.0 mm
10:15 PM 68.8°F20.4°C 59.4°F15.2°C 72% 1.0 mph N1.6 kmh N 2.0 mph3.2 kmh 29.89 in1012.2 mb 0.00 in0.0 mm 0.00 in0.0 mm 0.00 in0.0 mm
10:20 PM 68.4°F20.2°C 59.4°F15.2°C 73% 1.0 mph N1.6 kmh N 3.0 mph4.8 kmh 29.90 in1012.5 mb 0.00 in0.0 mm 0.00 in0.0 mm 0.00 in0.0 mm
10:25 PM 68.1°F20.1°C 59.1°F15.1°C 73% 1.0 mph N1.6 kmh N 4.0 mph6.4 kmh 29.90 in1012.5 mb 0.00 in0.0 mm 0.00 in0.0 mm 0.00 in0.0 mm
10:30 PM 67.9°F19.9°C 59.3°F15.2°C 74% 1.0 mph N1.6 kmh N 2.0 mph3.2 kmh 29.90 in1012.5 mb 0.00 in0.0 mm 0.00 in0.0 mm 0.00 in0.0 mm
10:35 PM 67.7°F19.8°C 59.1°F15.1°C 74% 2.0 mph N3.2 kmh N 5.0 mph8.0 kmh 29.90 in1012.5 mb 0.00 in0.0 mm 0.00 in0.0 mm 0.00 in0.0 mm
10:40 PM 67.5°F19.7°C 59.3°F15.2°C 75% 1.0 mph N1.6 kmh N 5.0 mph8.0 kmh 29.90 in1012.5 mb 0.00 in0.0 mm 0.00 in0.0 mm 0.00 in0.0 mm
10:45 PM 67.4°F19.7°C 59.2°F15.1°C 75% 2.0 mph N3.2 kmh N 3.0 mph4.8 kmh 29.90 in1012.5 mb 0.00 in0.0 mm 0.00 in0.0 mm 0.00 in0.0 mm
10:50 PM 67.3°F19.6°C 59.1°F15.1°C 75% 1.0 mph N1.6 kmh N 3.0 mph4.8 kmh 29.91 in1012.9 mb 0.00 in0.0 mm 0.00 in0.0 mm 0.00 in0.0 mm
10:55 PM 67.3°F19.6°C 59.1°F15.1°C 75% 2.0 mph N3.2 kmh N 5.0 mph8.0 kmh 29.91 in1012.9 mb 0.00 in0.0 mm 0.00 in0.0 mm 0.00 in0.0 mm
11:00 PM 67.2°F19.6°C 59.4°F15.2°C 76% 2.0 mph N3.2 kmh N 2.0 mph3.2 kmh 29.91 in1012.9 mb 0.00 in0.0 mm 0.00 in0.0 mm 0.00 in0.0 mm
11:05 PM 67.0°F19.4°C 59.2°F15.1°C 76% 4.0 mph N6.4 kmh N 4.0 mph6.4 kmh 29.91 in1012.9 mb 0.00 in0.0 mm 0.00 in0.0 mm 0.00 in0.0 mm
11:10 PM 66.7°F19.3°C 59.3°F15.2°C 77% 2.0 mph N3.2 kmh N 5.0 mph8.0 kmh 29.92 in1013.2 mb 0.00 in0.0 mm 0.00 in0.0 mm 0.00 in0.0 mm
11:15 PM 66.1°F18.9°C 59.1°F15.1°C 78% 2.0 mph N3.2 kmh N 3.0 mph4.8 kmh 29.92 in1013.2 mb 0.00 in0.0 mm 0.00 in0.0 mm 0.00 in0.0 mm
11:20 PM 65.7°F18.7°C 59.0°F15.0°C 79% 2.0 mph N3.2 kmh N 4.0 mph6.4 kmh 29.92 in1013.2 mb 0.00 in0.0 mm 0.00 in0.0 mm 0.00 in0.0 mm
11:25 PM 65.4°F18.6°C 59.1°F15.1°C 80% 2.0 mph N3.2 kmh N 4.0 mph6.4 kmh 29.92 in1013.2 mb 0.00 in0.0 mm 0.00 in0.0 mm 0.00 in0.0 mm
11:30 PM 65.1°F18.4°C 59.1°F15.1°C 81% 3.0 mph N4.8 kmh N 3.0 mph4.8 kmh 29.92 in1013.2 mb 0.00 in0.0 mm 0.00 in0.0 mm 0.00 in0.0 mm
11:35 PM 65.0°F18.3°C 59.0°F15.0°C 81% 4.0 mph N6.4 kmh N 4.0 mph6.4 kmh 29.92 in1013.2 mb 0.00 in0.0 mm 0.00 in0.0 mm 0.00 in0.0 mm
11:40 PM 64.9°F18.3°C 59.3°F15.2°C 82% 3.0 mph N4.8 kmh N 6.0 mph9.7 kmh 29.92 in1013.2 mb 0.00 in0.0 mm 0.00 in0.0 mm 0.00 in0.0 mm
11:45 PM 65.0°F18.3°C 59.4°F15.2°C 82% 4.0 mph N6.4 kmh N 4.0 mph6.4 kmh 29.92 in1013.2 mb 0.00 in0.0 mm 0.00 in0.0 mm 0.00 in0.0 mm
11:50 PM 65.0°F18.3°C 59.4°F15.2°C 82% 3.0 mph N4.8 kmh N 4.0 mph6.4 kmh 29.93 in1013.5 mb 0.00 in0.0 mm 0.00 in0.0 mm 0.00 in0.0 mm
11:55 PM 64.9°F18.3°C 59.3°F15.2°C 82% 2.0 mph N3.2 kmh N 4.0 mph6.4 kmh 29.92 in1013.2 mb 0.00 in0.0 mm 0.00 in0.0 mm 0.00 in0.0 mm